createdAt,value
2023-08-13T00:01:13.619Z,4.50
2023-08-13T00:03:40.235Z,3.80
2023-08-13T00:06:07.176Z,3.80
2023-08-13T00:08:33.882Z,4.00
2023-08-13T00:11:00.727Z,3.97
2023-08-13T00:13:27.157Z,3.70
2023-08-13T00:15:54.022Z,4.50
2023-08-13T00:18:20.710Z,3.63
2023-08-13T00:20:48.051Z,4.30
2023-08-13T00:23:14.465Z,3.53
2023-08-13T00:25:40.868Z,4.37
2023-08-13T00:28:07.304Z,3.67
2023-08-13T00:30:35.665Z,3.90
2023-08-13T00:33:02.895Z,4.00
2023-08-13T00:35:29.646Z,4.00
2023-08-13T00:37:56.085Z,4.90
2023-08-13T00:40:22.562Z,4.57
2023-08-13T00:42:49.099Z,4.67
2023-08-13T00:45:15.684Z,4.10
2023-08-13T00:47:42.932Z,4.27
2023-08-13T00:50:10.451Z,5.03
2023-08-13T00:52:37.356Z,4.83
2023-08-13T00:55:04.144Z,5.90
2023-08-13T00:57:31.744Z,5.27
2023-08-13T00:59:59.321Z,4.63
2023-08-13T01:02:25.761Z,4.70
2023-08-13T01:04:52.586Z,4.00
2023-08-13T01:07:30.577Z,4.20
2023-08-13T01:10:24.522Z,3.73
2023-08-13T01:13:00.135Z,3.70
2023-08-13T01:15:29.352Z,4.00
2023-08-13T01:17:56.917Z,3.73
2023-08-13T01:20:31.320Z,3.87
2023-08-13T01:22:58.033Z,3.47
2023-08-13T01:25:26.994Z,3.60
2023-08-13T01:28:05.689Z,3.93
2023-08-13T01:30:46.352Z,3.67
2023-08-13T01:33:21.604Z,3.57
2023-08-13T01:35:49.198Z,4.00
2023-08-13T01:38:16.757Z,3.43
2023-08-13T01:40:43.246Z,3.77
2023-08-13T01:43:09.802Z,3.33
2023-08-13T01:45:36.278Z,3.77
2023-08-13T01:48:02.780Z,3.87
2023-08-13T01:50:29.500Z,4.00
2023-08-13T01:52:55.945Z,3.97
2023-08-13T01:55:22.542Z,3.43
2023-08-13T01:57:49.011Z,3.70
2023-08-13T02:00:15.887Z,4.00
2023-08-13T02:02:42.400Z,4.20
2023-08-13T02:05:08.927Z,4.23
2023-08-13T02:07:35.865Z,3.27
2023-08-13T02:10:02.322Z,3.90
2023-08-13T02:12:28.816Z,3.33
2023-08-13T02:14:55.536Z,3.73
2023-08-13T02:17:22.039Z,3.80
2023-08-13T02:19:49.061Z,4.00
2023-08-13T02:22:15.742Z,4.20
2023-08-13T02:24:42.343Z,3.83
2023-08-13T02:27:09.369Z,3.60
2023-08-13T02:29:37.283Z,3.80
2023-08-13T02:32:04.461Z,3.73
2023-08-13T02:34:34.811Z,4.23
2023-08-13T02:37:01.692Z,3.70
2023-08-13T02:39:28.308Z,4.07
2023-08-13T02:41:54.743Z,4.03
2023-08-13T02:44:21.208Z,3.87
2023-08-13T02:46:48.471Z,3.43
2023-08-13T02:49:14.946Z,3.63
2023-08-13T02:51:41.455Z,3.47
2023-08-13T02:54:07.883Z,3.60
2023-08-13T02:56:34.295Z,4.20
2023-08-13T02:59:00.968Z,4.17
2023-08-13T03:01:27.605Z,4.33
2023-08-13T03:03:54.999Z,4.27
2023-08-13T03:06:26.156Z,3.87
2023-08-13T03:08:52.809Z,4.43
2023-08-13T03:11:19.335Z,4.43
2023-08-13T03:13:45.846Z,4.50
2023-08-13T03:16:12.473Z,4.67
2023-08-13T03:18:39.055Z,3.80
2023-08-13T03:21:05.607Z,4.70
2023-08-13T03:23:33.657Z,4.73
2023-08-13T03:26:01.351Z,5.53
2023-08-13T03:28:27.751Z,3.70
2023-08-13T03:31:01.380Z,4.50
2023-08-13T03:33:27.903Z,4.23
2023-08-13T03:35:54.544Z,4.40
2023-08-13T03:38:21.121Z,4.87
2023-08-13T03:40:47.693Z,4.77
2023-08-13T03:43:14.255Z,4.70
2023-08-13T03:45:42.636Z,4.87
2023-08-13T03:48:09.550Z,4.27
2023-08-13T03:50:40.996Z,4.53
2023-08-13T03:53:07.694Z,4.33
2023-08-13T03:55:34.920Z,4.20
2023-08-13T03:58:01.479Z,4.57
2023-08-13T04:00:27.954Z,4.60
2023-08-13T04:02:54.565Z,5.23
2023-08-13T04:05:21.233Z,4.30
2023-08-13T04:07:47.813Z,4.50
2023-08-13T04:10:14.308Z,4.10
2023-08-13T04:12:40.792Z,4.63
2023-08-13T04:15:07.889Z,5.10
2023-08-13T04:17:36.108Z,4.70
2023-08-13T04:20:02.684Z,5.13
2023-08-13T04:22:29.147Z,4.70
2023-08-13T04:24:55.725Z,4.77
2023-08-13T04:27:22.134Z,4.47
2023-08-13T04:29:48.658Z,4.93
2023-08-13T04:32:15.395Z,4.60
2023-08-13T04:34:42.001Z,4.67
2023-08-13T04:37:08.494Z,5.00
2023-08-13T04:39:34.950Z,4.43
2023-08-13T04:42:02.073Z,4.30
2023-08-13T04:44:28.618Z,5.10
2023-08-13T04:46:55.541Z,4.30
2023-08-13T04:49:22.005Z,5.00
2023-08-13T04:51:48.557Z,5.07
2023-08-13T04:54:15.050Z,5.17
2023-08-13T04:56:41.705Z,4.93
2023-08-13T04:59:08.196Z,5.57
2023-08-13T05:01:34.813Z,4.60
2023-08-13T05:04:01.275Z,4.47
2023-08-13T05:06:27.880Z,5.00
2023-08-13T05:08:54.391Z,4.53
2023-08-13T05:11:20.813Z,4.40
2023-08-13T05:13:47.277Z,4.37
2023-08-13T05:16:13.685Z,4.60
2023-08-13T05:18:40.243Z,4.07
2023-08-13T05:21:07.426Z,4.10
2023-08-13T05:23:33.878Z,5.07
2023-08-13T05:26:00.633Z,4.00
2023-08-13T05:28:27.199Z,4.17
2023-08-13T05:30:53.935Z,4.27
2023-08-13T05:33:20.428Z,4.53
2023-08-13T05:35:46.836Z,3.90
2023-08-13T05:38:13.274Z,4.00
2023-08-13T05:40:41.035Z,3.93
2023-08-13T05:43:07.456Z,3.80
2023-08-13T05:45:34.297Z,4.03
2023-08-13T05:48:00.729Z,3.63
2023-08-13T05:50:27.519Z,3.70
2023-08-13T05:52:53.959Z,3.53
2023-08-13T05:55:20.423Z,3.50
2023-08-13T05:57:46.920Z,3.70
2023-08-13T06:00:14.705Z,3.80
2023-08-13T06:02:41.572Z,3.60
2023-08-13T06:05:08.710Z,3.80
2023-08-13T06:07:37.128Z,3.33
2023-08-13T06:10:08.016Z,3.60
2023-08-13T06:12:35.352Z,3.87
2023-08-13T06:15:02.048Z,3.40
2023-08-13T06:17:28.502Z,3.10
2023-08-13T06:19:55.034Z,3.20
2023-08-13T06:22:22.017Z,3.40
2023-08-13T06:24:49.208Z,3.40
2023-08-13T06:27:15.811Z,3.53
2023-08-13T06:29:52.157Z,3.20
2023-08-13T06:32:26.546Z,3.70
2023-08-13T06:34:53.058Z,3.23
2023-08-13T06:37:19.534Z,3.53
2023-08-13T06:39:46.915Z,3.57
2023-08-13T06:42:13.945Z,3.00
2023-08-13T06:44:40.970Z,3.00
2023-08-13T06:47:08.039Z,3.10
2023-08-13T06:49:34.764Z,2.90
2023-08-13T06:52:01.221Z,3.23
2023-08-13T06:54:27.846Z,3.30
2023-08-13T06:56:54.275Z,3.00
2023-08-13T06:59:20.747Z,2.90
2023-08-13T07:01:47.258Z,2.90
2023-08-13T07:04:14.063Z,3.07
2023-08-13T07:06:41.433Z,2.77
2023-08-13T07:09:08.190Z,3.03
2023-08-13T07:11:36.314Z,3.50
2023-08-13T07:14:04.370Z,2.70
2023-08-13T07:16:31.511Z,3.50
2023-08-13T07:18:59.644Z,3.17
2023-08-13T07:21:26.234Z,2.63
2023-08-13T07:23:52.705Z,2.90
2023-08-13T07:26:19.171Z,2.40
2023-08-13T07:28:45.656Z,2.57
2023-08-13T07:31:12.121Z,2.80
2023-08-13T07:33:38.528Z,2.47
2023-08-13T07:36:06.150Z,2.50
2023-08-13T07:38:34.142Z,3.03
2023-08-13T07:41:01.768Z,2.70
2023-08-13T07:43:28.222Z,2.67
2023-08-13T07:45:54.956Z,2.67
2023-08-13T07:48:21.439Z,2.50
2023-08-13T07:50:47.978Z,2.70
2023-08-13T07:53:14.426Z,2.67
2023-08-13T07:55:41.159Z,3.00
2023-08-13T07:58:07.744Z,2.50
2023-08-13T08:00:34.193Z,2.90
2023-08-13T08:03:00.668Z,2.47
2023-08-13T08:05:27.230Z,2.67
2023-08-13T08:07:53.852Z,2.80
2023-08-13T08:10:20.720Z,3.07
2023-08-13T08:12:47.137Z,3.13
2023-08-13T08:15:13.596Z,2.73
2023-08-13T08:17:40.092Z,2.50
2023-08-13T08:20:07.857Z,3.17
2023-08-13T08:22:35.001Z,3.17
2023-08-13T08:25:02.020Z,2.90
2023-08-13T08:27:28.830Z,3.03
2023-08-13T08:29:55.314Z,3.07
2023-08-13T08:32:21.847Z,2.80
2023-08-13T08:34:48.414Z,2.57
2023-08-13T08:37:15.395Z,2.77
2023-08-13T08:39:42.678Z,2.63
2023-08-13T08:42:10.772Z,2.87
2023-08-13T08:44:46.462Z,2.63
2023-08-13T08:47:15.107Z,2.60
2023-08-13T08:49:43.978Z,2.50
2023-08-13T08:52:10.588Z,2.57
2023-08-13T08:54:39.515Z,1.90
2023-08-13T08:57:06.642Z,2.20
2023-08-13T08:59:33.331Z,2.20
2023-08-13T09:01:59.905Z,2.20
2023-08-13T09:04:26.311Z,2.13
2023-08-13T09:06:56.893Z,1.80
2023-08-13T09:09:24.813Z,2.10
2023-08-13T09:11:52.594Z,1.67
2023-08-13T09:14:19.956Z,1.70
2023-08-13T09:16:48.005Z,1.70
2023-08-13T09:19:19.441Z,1.75
2023-08-13T09:21:54.514Z,1.38
2023-08-13T09:24:32.579Z,1.92
2023-08-13T09:27:00.194Z,1.38
2023-08-13T09:29:29.820Z,1.00
2023-08-13T09:31:57.394Z,1.85
2023-08-13T09:34:27.231Z,1.25
2023-08-13T09:36:55.185Z,1.20
2023-08-13T09:39:24.996Z,1.60
2023-08-13T09:41:53.090Z,1.60
2023-08-13T09:44:27.774Z,1.58
2023-08-13T09:46:57.262Z,1.40
2023-08-13T09:49:24.466Z,1.55
2023-08-13T09:51:53.202Z,1.33
2023-08-13T09:54:44.419Z,1.50
2023-08-13T09:57:15.432Z,1.20
2023-08-13T09:59:42.875Z,1.35
2023-08-13T10:02:09.922Z,1.45
2023-08-13T10:04:37.806Z,1.20
2023-08-13T10:07:06.243Z,1.40
2023-08-13T10:09:36.528Z,1.45
2023-08-13T10:12:04.898Z,1.05
2023-08-13T10:14:31.839Z,1.08
2023-08-13T10:17:02.682Z,1.20
2023-08-13T10:19:30.487Z,1.10
2023-08-13T10:21:59.004Z,1.30
2023-08-13T10:24:30.102Z,1.10
2023-08-13T10:26:57.165Z,1.20
2023-08-13T10:29:23.681Z,1.33
2023-08-13T10:31:59.355Z,1.48
2023-08-13T10:34:40.905Z,0.90
2023-08-13T10:37:33.914Z,1.15
2023-08-13T10:40:00.260Z,1.17
2023-08-13T10:42:35.043Z,1.30
2023-08-13T10:45:01.462Z,1.00
2023-08-13T10:47:38.838Z,0.98
2023-08-13T10:50:16.755Z,1.10
2023-08-13T10:52:43.338Z,1.10
2023-08-13T10:55:14.689Z,0.85
2023-08-13T10:57:42.978Z,1.30
2023-08-13T11:00:14.903Z,0.80
2023-08-13T11:02:44.946Z,1.15
2023-08-13T11:05:11.738Z,0.98
2023-08-13T11:07:38.270Z,1.30
2023-08-13T11:10:05.955Z,1.13
2023-08-13T11:12:33.325Z,1.38
2023-08-13T11:15:01.514Z,1.00
2023-08-13T11:17:28.369Z,1.08
2023-08-13T11:19:58.440Z,1.23
2023-08-13T11:22:25.769Z,1.00
2023-08-13T11:24:52.386Z,1.00
2023-08-13T11:27:18.887Z,1.02
2023-08-13T11:29:45.345Z,1.45
2023-08-13T11:32:11.810Z,1.25
2023-08-13T11:34:38.274Z,1.02
2023-08-13T11:37:04.944Z,1.10
2023-08-13T11:39:33.291Z,1.40
2023-08-13T11:42:11.157Z,0.93
2023-08-13T11:44:38.523Z,0.80
2023-08-13T11:47:05.507Z,0.90
2023-08-13T11:49:41.281Z,0.88
2023-08-13T11:52:07.966Z,0.80
2023-08-13T11:54:38.182Z,0.75
2023-08-13T11:57:04.694Z,1.00
2023-08-13T11:59:31.366Z,1.00
2023-08-13T12:01:59.343Z,0.90
2023-08-13T12:04:37.413Z,0.80
2023-08-13T12:07:10.263Z,0.77
2023-08-13T12:09:36.723Z,0.80
2023-08-13T12:12:03.364Z,0.90
2023-08-13T12:14:29.808Z,0.93
2023-08-13T12:16:57.333Z,1.15
2023-08-13T12:19:23.881Z,1.20
2023-08-13T12:21:50.351Z,0.70
2023-08-13T12:24:16.822Z,0.63
2023-08-13T12:26:43.450Z,1.20
2023-08-13T12:29:09.946Z,0.90
2023-08-13T12:31:36.595Z,1.38
2023-08-13T12:34:03.083Z,1.10
2023-08-13T12:36:29.519Z,1.30
2023-08-13T12:38:56.312Z,1.00
2023-08-13T12:41:34.583Z,0.80
2023-08-13T12:44:06.149Z,1.10
2023-08-13T12:46:32.681Z,0.90
2023-08-13T12:48:59.554Z,1.63
2023-08-13T12:51:26.141Z,1.30
2023-08-13T12:53:52.690Z,1.02
2023-08-13T12:56:19.268Z,0.93
2023-08-13T12:58:46.230Z,1.05
2023-08-13T13:01:13.093Z,1.20
2023-08-13T13:03:39.731Z,1.00
2023-08-13T13:06:06.441Z,1.50
2023-08-13T13:08:32.928Z,1.52
2023-08-13T13:10:59.448Z,1.10
2023-08-13T13:13:26.022Z,1.30
2023-08-13T13:15:52.562Z,1.50
2023-08-13T13:18:19.007Z,1.20
2023-08-13T13:20:47.742Z,1.15
2023-08-13T13:23:15.032Z,1.40
2023-08-13T13:25:43.098Z,1.15
2023-08-13T13:28:10.096Z,1.10
2023-08-13T13:30:37.020Z,1.30
2023-08-13T13:33:05.231Z,0.85
2023-08-13T13:35:32.531Z,1.08
2023-08-13T13:37:59.197Z,1.52
2023-08-13T13:40:26.752Z,1.20
2023-08-13T13:42:53.662Z,1.45
2023-08-13T13:45:20.575Z,1.17
2023-08-13T13:47:47.728Z,1.17
2023-08-13T13:50:17.871Z,1.10
2023-08-13T13:52:44.630Z,1.15
2023-08-13T13:55:11.575Z,1.10
2023-08-13T13:57:38.165Z,1.02
2023-08-13T14:00:07.157Z,1.10
2023-08-13T14:02:34.793Z,1.42
2023-08-13T14:05:04.096Z,1.00
2023-08-13T14:07:32.124Z,1.00
2023-08-13T14:09:58.769Z,1.60
2023-08-13T14:12:25.372Z,1.83
2023-08-13T14:14:51.840Z,2.10
2023-08-13T14:17:18.383Z,1.30
2023-08-13T14:19:45.145Z,1.25
2023-08-13T14:22:11.873Z,1.20
2023-08-13T14:24:38.364Z,1.40
2023-08-13T14:27:04.970Z,1.45
2023-08-13T14:29:31.487Z,1.50
2023-08-13T14:31:58.079Z,1.25
2023-08-13T14:34:24.620Z,1.25
2023-08-13T14:36:51.156Z,1.35
2023-08-13T14:39:17.644Z,1.17
2023-08-13T14:41:44.307Z,1.23
2023-08-13T14:44:10.897Z,1.33
2023-08-13T14:46:38.090Z,1.08
2023-08-13T14:49:05.834Z,1.27
2023-08-13T14:51:32.456Z,1.17
2023-08-13T14:53:59.054Z,1.50
2023-08-13T14:56:26.181Z,1.20
2023-08-13T14:58:52.648Z,1.90
2023-08-13T15:01:19.926Z,2.75
2023-08-13T15:03:46.656Z,3.08
2023-08-13T15:06:13.221Z,1.30
2023-08-13T15:08:39.752Z,1.38
2023-08-13T15:11:07.619Z,1.65
2023-08-13T15:13:34.433Z,1.50
2023-08-13T15:16:01.906Z,1.10
2023-08-13T15:18:28.645Z,1.00
2023-08-13T15:20:55.233Z,1.33
2023-08-13T15:23:21.774Z,1.60
2023-08-13T15:25:56.071Z,1.30
2023-08-13T15:28:23.515Z,1.10
2023-08-13T15:30:54.529Z,1.38
2023-08-13T15:33:21.448Z,1.63
2023-08-13T15:35:58.839Z,1.33
2023-08-13T15:38:26.086Z,1.38
2023-08-13T15:40:53.054Z,1.48
2023-08-13T15:43:20.180Z,1.50
2023-08-13T15:45:46.937Z,1.75
2023-08-13T15:48:13.481Z,2.30
2023-08-13T15:50:41.578Z,2.95
2023-08-13T15:53:08.441Z,1.65
2023-08-13T15:55:37.473Z,1.95
2023-08-13T15:58:04.723Z,1.80
2023-08-13T16:00:31.245Z,1.80
2023-08-13T16:02:57.802Z,1.50
2023-08-13T16:05:24.345Z,1.48
2023-08-13T16:07:50.846Z,1.90
2023-08-13T16:10:17.275Z,1.50
2023-08-13T16:12:43.779Z,1.30
2023-08-13T16:15:11.698Z,1.30
2023-08-13T16:17:45.879Z,1.63
2023-08-13T16:20:14.395Z,2.70
2023-08-13T16:22:48.606Z,2.53
2023-08-13T16:25:16.294Z,3.10
2023-08-13T16:27:45.931Z,2.10
2023-08-13T16:30:12.811Z,1.88
2023-08-13T16:32:40.446Z,2.00
2023-08-13T16:35:08.437Z,1.73
2023-08-13T16:37:35.023Z,1.55
2023-08-13T16:40:01.729Z,1.83
2023-08-13T16:42:35.527Z,1.48
2023-08-13T16:45:08.728Z,1.27
2023-08-13T16:47:36.543Z,1.65
2023-08-13T16:50:14.148Z,2.40
2023-08-13T16:52:41.855Z,2.38
2023-08-13T16:55:10.125Z,2.00
2023-08-13T16:57:38.150Z,2.10
2023-08-13T17:00:13.923Z,1.90
2023-08-13T17:02:47.414Z,1.77
2023-08-13T17:05:17.377Z,1.67
2023-08-13T17:07:43.899Z,1.38
2023-08-13T17:10:10.958Z,1.40
2023-08-13T17:12:37.450Z,1.50
2023-08-13T17:15:21.156Z,1.30
2023-08-13T17:17:52.429Z,1.35
2023-08-13T17:20:21.711Z,1.50
2023-08-13T17:22:49.121Z,1.27
2023-08-13T17:25:15.924Z,1.00
2023-08-13T17:27:42.362Z,1.17
2023-08-13T17:30:09.208Z,1.30
2023-08-13T17:32:35.938Z,1.30
2023-08-13T17:35:02.817Z,1.52
2023-08-13T17:37:29.692Z,1.35
2023-08-13T17:39:57.239Z,1.70
2023-08-13T17:42:24.968Z,1.77
2023-08-13T17:44:51.482Z,1.83
2023-08-13T17:47:18.755Z,1.95
2023-08-13T17:49:45.602Z,2.40
2023-08-13T17:52:12.155Z,2.67
2023-08-13T17:54:38.987Z,2.55
2023-08-13T17:57:05.512Z,2.47
2023-08-13T17:59:32.021Z,2.50
2023-08-13T18:01:58.470Z,2.10
2023-08-13T18:04:24.927Z,1.80
2023-08-13T18:06:51.440Z,1.90
2023-08-13T18:09:17.847Z,1.90
2023-08-13T18:11:44.295Z,2.17
2023-08-13T18:14:11.771Z,2.10
2023-08-13T18:16:38.205Z,1.73
2023-08-13T18:19:04.837Z,2.20
2023-08-13T18:21:31.288Z,2.20
2023-08-13T18:23:57.965Z,2.17
2023-08-13T18:26:24.385Z,2.73
2023-08-13T18:28:51.055Z,2.47
2023-08-13T18:31:17.542Z,2.70
2023-08-13T18:33:44.086Z,2.40
2023-08-13T18:36:10.618Z,2.73
2023-08-13T18:38:37.041Z,2.23
2023-08-13T18:41:03.766Z,2.47
2023-08-13T18:43:30.274Z,2.90
2023-08-13T18:45:56.702Z,3.40
2023-08-13T18:48:23.273Z,5.33
2023-08-13T18:50:50.972Z,5.13
2023-08-13T18:53:17.656Z,3.77
2023-08-13T18:55:50.267Z,3.27
2023-08-13T18:58:18.261Z,8.77
2023-08-13T19:00:46.008Z,10.20
2023-08-13T19:03:13.630Z,11.10
2023-08-13T19:05:43.396Z,9.93
2023-08-13T19:08:09.870Z,8.50
2023-08-13T19:10:39.678Z,6.90
2023-08-13T19:13:06.231Z,6.27
2023-08-13T19:15:33.211Z,4.90
2023-08-13T19:17:59.733Z,4.40
2023-08-13T19:20:26.380Z,9.53
2023-08-13T19:22:52.946Z,22.50
2023-08-13T19:25:19.352Z,25.57
2023-08-13T19:27:45.780Z,20.53
2023-08-13T19:30:12.642Z,16.97
2023-08-13T19:32:39.192Z,16.00
2023-08-13T19:35:06.342Z,13.77
2023-08-13T19:37:32.832Z,11.13
2023-08-13T19:39:59.264Z,11.50
2023-08-13T19:42:28.762Z,10.17
2023-08-13T19:44:55.259Z,9.27
2023-08-13T19:47:21.716Z,8.60
2023-08-13T19:49:48.342Z,8.07
2023-08-13T19:52:15.129Z,7.43
2023-08-13T19:54:42.159Z,6.13
2023-08-13T19:57:09.037Z,5.93
2023-08-13T19:59:35.576Z,6.17
2023-08-13T20:02:02.424Z,5.80
2023-08-13T20:04:28.961Z,5.50
2023-08-13T20:06:55.421Z,5.93
2023-08-13T20:09:24.215Z,5.17
2023-08-13T20:11:52.032Z,5.23
2023-08-13T20:14:18.520Z,5.30
2023-08-13T20:16:45.076Z,6.00
2023-08-13T20:19:11.627Z,5.40
2023-08-13T20:21:53.631Z,4.67
2023-08-13T20:24:21.944Z,4.13
2023-08-13T20:26:48.939Z,3.93
2023-08-13T20:29:16.141Z,3.83
2023-08-13T20:31:44.037Z,3.83
2023-08-13T20:34:11.058Z,3.77
2023-08-13T20:36:38.007Z,3.90
2023-08-13T20:39:05.394Z,3.67
2023-08-13T20:41:32.033Z,3.60
2023-08-13T20:43:58.528Z,3.77
2023-08-13T20:46:26.465Z,3.63
2023-08-13T20:48:53.256Z,3.67
2023-08-13T20:51:20.054Z,4.03
2023-08-13T20:53:46.488Z,3.43
2023-08-13T20:56:15.398Z,3.47
2023-08-13T20:58:41.830Z,3.83
2023-08-13T21:01:08.282Z,3.70
2023-08-13T21:03:34.908Z,3.77
2023-08-13T21:06:01.829Z,3.50
2023-08-13T21:08:28.252Z,3.40
2023-08-13T21:10:54.723Z,3.83
2023-08-13T21:13:21.453Z,3.57
2023-08-13T21:15:47.928Z,3.57
2023-08-13T21:18:14.458Z,3.20
2023-08-13T21:20:40.872Z,4.13
2023-08-13T21:23:07.324Z,3.57
2023-08-13T21:25:34.675Z,3.80
2023-08-13T21:28:01.067Z,3.60
2023-08-13T21:30:28.029Z,3.47
2023-08-13T21:32:55.932Z,3.37
2023-08-13T21:35:24.081Z,3.63
2023-08-13T21:37:50.859Z,3.10
2023-08-13T21:40:17.461Z,3.57
2023-08-13T21:42:43.958Z,3.27
2023-08-13T21:45:10.769Z,4.30
2023-08-13T21:47:37.546Z,3.53
2023-08-13T21:50:04.412Z,3.20
2023-08-13T21:52:30.882Z,4.17
2023-08-13T21:54:57.322Z,4.20
2023-08-13T21:57:23.880Z,3.60
2023-08-13T21:59:50.636Z,3.50
2023-08-13T22:02:17.272Z,3.93
2023-08-13T22:04:44.202Z,3.63
2023-08-13T22:07:10.693Z,3.77
2023-08-13T22:09:37.166Z,3.93
2023-08-13T22:12:03.758Z,3.67
2023-08-13T22:14:30.150Z,3.93
2023-08-13T22:16:56.655Z,3.77
2023-08-13T22:19:44.931Z,4.00
2023-08-13T22:22:11.349Z,3.50
2023-08-13T22:24:37.747Z,3.67
2023-08-13T22:27:05.004Z,4.03
2023-08-13T22:29:31.564Z,4.17
2023-08-13T22:31:58.157Z,3.87
2023-08-13T22:34:24.939Z,3.70
2023-08-13T22:36:51.345Z,3.57
2023-08-13T22:39:17.796Z,4.03
2023-08-13T22:41:44.265Z,3.70
2023-08-13T22:44:11.406Z,3.73
2023-08-13T22:46:37.886Z,3.97
2023-08-13T22:49:04.663Z,3.80
2023-08-13T22:51:31.065Z,3.80
2023-08-13T22:53:58.565Z,3.67
2023-08-13T22:56:26.545Z,3.57
2023-08-13T22:58:54.411Z,3.70
2023-08-13T23:01:21.824Z,3.73
2023-08-13T23:03:48.264Z,3.90
2023-08-13T23:06:18.497Z,3.57
2023-08-13T23:08:45.521Z,3.27
2023-08-13T23:11:11.931Z,3.53
2023-08-13T23:13:38.394Z,3.17
2023-08-13T23:16:05.755Z,3.67
2023-08-13T23:18:32.254Z,3.57
2023-08-13T23:20:58.948Z,4.00
2023-08-13T23:23:27.404Z,3.57
2023-08-13T23:25:53.886Z,3.60
2023-08-13T23:28:21.156Z,3.50
2023-08-13T23:30:47.591Z,3.70
2023-08-13T23:33:14.296Z,3.50
2023-08-13T23:35:41.332Z,3.60
2023-08-13T23:38:07.759Z,3.63
2023-08-13T23:40:34.373Z,3.43
2023-08-13T23:43:00.775Z,3.90
2023-08-13T23:45:27.250Z,3.27
2023-08-13T23:47:53.823Z,3.67
2023-08-13T23:50:20.309Z,3.73
2023-08-13T23:52:46.844Z,3.37
2023-08-13T23:55:13.285Z,3.43
2023-08-13T23:57:39.682Z,3.63
